sensor_id;sensor_type;location;lat;lon;timestamp;P1;durP1;ratioP1;P2;durP2;ratioP2
17520;SDS011;8878;-33.370;-70.552;2022-08-19T00:02:00;16.43;;;7.13;;
17520;SDS011;8878;-33.370;-70.552;2022-08-19T00:04:33;20.87;;;9.07;;
17520;SDS011;8878;-33.370;-70.552;2022-08-19T00:07:03;8.77;;;5.43;;
17520;SDS011;8878;-33.370;-70.552;2022-08-19T00:09:33;14.60;;;6.67;;
17520;SDS011;8878;-33.370;-70.552;2022-08-19T00:12:03;14.37;;;6.93;;
17520;SDS011;8878;-33.370;-70.552;2022-08-19T00:14:33;8.10;;;5.43;;
17520;SDS011;8878;-33.370;-70.552;2022-08-19T00:17:02;9.80;;;6.83;;
17520;SDS011;8878;-33.370;-70.552;2022-08-19T00:19:35;9.47;;;5.67;;
17520;SDS011;8878;-33.370;-70.552;2022-08-19T00:22:06;10.87;;;6.57;;
17520;SDS011;8878;-33.370;-70.552;2022-08-19T00:24:35;13.70;;;6.60;;
17520;SDS011;8878;-33.370;-70.552;2022-08-19T00:27:06;10.80;;;5.97;;
17520;SDS011;8878;-33.370;-70.552;2022-08-19T00:29:36;15.93;;;6.10;;
17520;SDS011;8878;-33.370;-70.552;2022-08-19T00:32:06;19.70;;;7.27;;
17520;SDS011;8878;-33.370;-70.552;2022-08-19T00:34:37;9.90;;;6.40;;
17520;SDS011;8878;-33.370;-70.552;2022-08-19T00:37:06;9.67;;;4.97;;
17520;SDS011;8878;-33.370;-70.552;2022-08-19T00:39:36;5.97;;;4.70;;
17520;SDS011;8878;-33.370;-70.552;2022-08-19T00:42:07;15.90;;;3.97;;
17520;SDS011;8878;-33.370;-70.552;2022-08-19T00:44:36;20.67;;;5.60;;
17520;SDS011;8878;-33.370;-70.552;2022-08-19T00:47:06;6.17;;;4.40;;
17520;SDS011;8878;-33.370;-70.552;2022-08-19T00:49:40;7.73;;;4.20;;
17520;SDS011;8878;-33.370;-70.552;2022-08-19T00:52:18;6.97;;;3.83;;
17520;SDS011;8878;-33.370;-70.552;2022-08-19T00:54:51;7.50;;;5.23;;
17520;SDS011;8878;-33.370;-70.552;2022-08-19T00:57:22;12.23;;;5.20;;
17520;SDS011;8878;-33.370;-70.552;2022-08-19T00:59:56;10.10;;;5.70;;
17520;SDS011;8878;-33.370;-70.552;2022-08-19T01:02:28;12.97;;;5.33;;
17520;SDS011;8878;-33.370;-70.552;2022-08-19T01:05:01;8.57;;;5.87;;
17520;SDS011;8878;-33.370;-70.552;2022-08-19T01:07:34;6.67;;;4.87;;
17520;SDS011;8878;-33.370;-70.552;2022-08-19T01:10:07;8.53;;;4.27;;
17520;SDS011;8878;-33.370;-70.552;2022-08-19T01:12:38;12.00;;;5.53;;
17520;SDS011;8878;-33.370;-70.552;2022-08-19T01:15:09;16.63;;;4.60;;
17520;SDS011;8878;-33.370;-70.552;2022-08-19T01:17:42;14.43;;;6.43;;
17520;SDS011;8878;-33.370;-70.552;2022-08-19T01:20:15;6.37;;;4.10;;
17520;SDS011;8878;-33.370;-70.552;2022-08-19T01:22:49;8.53;;;3.87;;
17520;SDS011;8878;-33.370;-70.552;2022-08-19T01:25:20;10.23;;;4.47;;
17520;SDS011;8878;-33.370;-70.552;2022-08-19T01:27:54;14.37;;;3.73;;
17520;SDS011;8878;-33.370;-70.552;2022-08-19T01:30:25;16.27;;;4.30;;
17520;SDS011;8878;-33.370;-70.552;2022-08-19T01:32:56;11.43;;;4.20;;
17520;SDS011;8878;-33.370;-70.552;2022-08-19T01:35:28;7.93;;;3.60;;
17520;SDS011;8878;-33.370;-70.552;2022-08-19T01:38:00;8.47;;;4.73;;
17520;SDS011;8878;-33.370;-70.552;2022-08-19T01:40:33;9.90;;;5.23;;
17520;SDS011;8878;-33.370;-70.552;2022-08-19T01:43:04;10.50;;;4.23;;
17520;SDS011;8878;-33.370;-70.552;2022-08-19T01:45:34;11.87;;;4.13;;
17520;SDS011;8878;-33.370;-70.552;2022-08-19T01:48:06;11.50;;;4.20;;
17520;SDS011;8878;-33.370;-70.552;2022-08-19T01:50:35;6.37;;;4.50;;
17520;SDS011;8878;-33.370;-70.552;2022-08-19T01:53:09;9.27;;;5.63;;
17520;SDS011;8878;-33.370;-70.552;2022-08-19T01:55:41;6.60;;;3.97;;
17520;SDS011;8878;-33.370;-70.552;2022-08-19T01:58:14;5.07;;;3.80;;
17520;SDS011;8878;-33.370;-70.552;2022-08-19T02:00:50;8.83;;;4.20;;
17520;SDS011;8878;-33.370;-70.552;2022-08-19T02:03:19;8.83;;;3.97;;
17520;SDS011;8878;-33.370;-70.552;2022-08-19T02:05:53;7.60;;;4.63;;
17520;SDS011;8878;-33.370;-70.552;2022-08-19T02:08:25;8.97;;;5.20;;
17520;SDS011;8878;-33.370;-70.552;2022-08-19T02:10:54;8.83;;;3.93;;
17520;SDS011;8878;-33.370;-70.552;2022-08-19T02:13:24;7.60;;;3.60;;
17520;SDS011;8878;-33.370;-70.552;2022-08-19T02:15:55;9.93;;;4.77;;
17520;SDS011;8878;-33.370;-70.552;2022-08-19T02:18:25;17.63;;;4.17;;
17520;SDS011;8878;-33.370;-70.552;2022-08-19T02:20:54;11.77;;;5.60;;
17520;SDS011;8878;-33.370;-70.552;2022-08-19T02:23:25;4.30;;;3.60;;
17520;SDS011;8878;-33.370;-70.552;2022-08-19T02:25:55;8.83;;;4.03;;
17520;SDS011;8878;-33.370;-70.552;2022-08-19T02:28:24;10.90;;;5.20;;
17520;SDS011;8878;-33.370;-70.552;2022-08-19T02:30:53;3.90;;;3.50;;
17520;SDS011;8878;-33.370;-70.552;2022-08-19T02:33:23;4.63;;;2.97;;
17520;SDS011;8878;-33.370;-70.552;2022-08-19T02:35:53;7.77;;;4.50;;
17520;SDS011;8878;-33.370;-70.552;2022-08-19T02:38:22;6.70;;;3.17;;
17520;SDS011;8878;-33.370;-70.552;2022-08-19T02:40:54;6.80;;;3.93;;
17520;SDS011;8878;-33.370;-70.552;2022-08-19T02:43:25;19.27;;;5.13;;
17520;SDS011;8878;-33.370;-70.552;2022-08-19T02:45:56;4.90;;;3.20;;
17520;SDS011;8878;-33.370;-70.552;2022-08-19T02:48:26;7.03;;;3.63;;
17520;SDS011;8878;-33.370;-70.552;2022-08-19T02:50:55;8.07;;;4.57;;
17520;SDS011;8878;-33.370;-70.552;2022-08-19T02:53:27;7.80;;;4.20;;
17520;SDS011;8878;-33.370;-70.552;2022-08-19T02:55:57;5.83;;;3.27;;
17520;SDS011;8878;-33.370;-70.552;2022-08-19T02:58:26;8.13;;;3.30;;
17520;SDS011;8878;-33.370;-70.552;2022-08-19T03:00:56;6.20;;;3.20;;
17520;SDS011;8878;-33.370;-70.552;2022-08-19T03:03:25;4.47;;;3.70;;
17520;SDS011;8878;-33.370;-70.552;2022-08-19T03:06:05;5.17;;;2.83;;
17520;SDS011;8878;-33.370;-70.552;2022-08-19T03:08:39;7.43;;;5.00;;
17520;SDS011;8878;-33.370;-70.552;2022-08-19T03:11:12;7.47;;;3.63;;
17520;SDS011;8878;-33.370;-70.552;2022-08-19T03:13:43;13.47;;;4.27;;
17520;SDS011;8878;-33.370;-70.552;2022-08-19T03:16:12;4.60;;;3.60;;
17520;SDS011;8878;-33.370;-70.552;2022-08-19T03:18:41;4.13;;;2.80;;
17520;SDS011;8878;-33.370;-70.552;2022-08-19T03:21:15;4.67;;;3.47;;
17520;SDS011;8878;-33.370;-70.552;2022-08-19T03:23:46;5.47;;;3.03;;
17520;SDS011;8878;-33.370;-70.552;2022-08-19T03:26:16;11.60;;;3.90;;
17520;SDS011;8878;-33.370;-70.552;2022-08-19T03:28:45;7.53;;;3.47;;
17520;SDS011;8878;-33.370;-70.552;2022-08-19T03:31:16;3.93;;;2.87;;
17520;SDS011;8878;-33.370;-70.552;2022-08-19T03:33:47;7.40;;;3.73;;
17520;SDS011;8878;-33.370;-70.552;2022-08-19T03:36:17;7.13;;;2.53;;
17520;SDS011;8878;-33.370;-70.552;2022-08-19T03:38:51;4.47;;;2.50;;
17520;SDS011;8878;-33.370;-70.552;2022-08-19T03:41:22;6.40;;;3.37;;
17520;SDS011;8878;-33.370;-70.552;2022-08-19T03:43:53;3.90;;;2.57;;
17520;SDS011;8878;-33.370;-70.552;2022-08-19T03:46:24;4.87;;;3.23;;
17520;SDS011;8878;-33.370;-70.552;2022-08-19T03:48:56;7.27;;;3.43;;
17520;SDS011;8878;-33.370;-70.552;2022-08-19T03:51:26;3.07;;;2.77;;
17520;SDS011;8878;-33.370;-70.552;2022-08-19T03:54:01;4.87;;;3.63;;
17520;SDS011;8878;-33.370;-70.552;2022-08-19T03:56:33;8.50;;;2.17;;
17520;SDS011;8878;-33.370;-70.552;2022-08-19T03:59:03;3.47;;;2.67;;
17520;SDS011;8878;-33.370;-70.552;2022-08-19T04:01:34;5.63;;;3.63;;
17520;SDS011;8878;-33.370;-70.552;2022-08-19T04:04:04;2.20;;;1.50;;
17520;SDS011;8878;-33.370;-70.552;2022-08-19T04:06:34;6.03;;;3.77;;
17520;SDS011;8878;-33.370;-70.552;2022-08-19T04:09:08;4.03;;;3.17;;
17520;SDS011;8878;-33.370;-70.552;2022-08-19T04:11:39;7.03;;;2.63;;
17520;SDS011;8878;-33.370;-70.552;2022-08-19T04:14:09;15.80;;;2.83;;
17520;SDS011;8878;-33.370;-70.552;2022-08-19T04:16:39;4.80;;;3.27;;
17520;SDS011;8878;-33.370;-70.552;2022-08-19T04:19:09;9.37;;;3.17;;
17520;SDS011;8878;-33.370;-70.552;2022-08-19T04:21:40;6.33;;;2.27;;
17520;SDS011;8878;-33.370;-70.552;2022-08-19T04:24:14;2.20;;;2.03;;
17520;SDS011;8878;-33.370;-70.552;2022-08-19T04:26:44;5.70;;;3.63;;
17520;SDS011;8878;-33.370;-70.552;2022-08-19T04:29:14;5.53;;;2.80;;
17520;SDS011;8878;-33.370;-70.552;2022-08-19T04:31:48;11.17;;;2.37;;
17520;SDS011;8878;-33.370;-70.552;2022-08-19T04:34:20;5.57;;;3.83;;
17520;SDS011;8878;-33.370;-70.552;2022-08-19T04:36:53;8.03;;;2.13;;
17520;SDS011;8878;-33.370;-70.552;2022-08-19T04:39:26;4.50;;;2.60;;
17520;SDS011;8878;-33.370;-70.552;2022-08-19T04:42:10;7.37;;;2.63;;
17520;SDS011;8878;-33.370;-70.552;2022-08-19T04:44:56;4.17;;;1.90;;
17520;SDS011;8878;-33.370;-70.552;2022-08-19T04:47:26;8.43;;;2.70;;
17520;SDS011;8878;-33.370;-70.552;2022-08-19T04:49:58;3.93;;;2.80;;
17520;SDS011;8878;-33.370;-70.552;2022-08-19T04:52:27;4.07;;;1.93;;
17520;SDS011;8878;-33.370;-70.552;2022-08-19T04:54:59;7.17;;;1.87;;
17520;SDS011;8878;-33.370;-70.552;2022-08-19T04:57:29;5.73;;;1.10;;
17520;SDS011;8878;-33.370;-70.552;2022-08-19T04:59:58;2.47;;;1.77;;
17520;SDS011;8878;-33.370;-70.552;2022-08-19T05:02:29;2.20;;;1.63;;
17520;SDS011;8878;-33.370;-70.552;2022-08-19T05:04:59;0.73;;;0.73;;
17520;SDS011;8878;-33.370;-70.552;2022-08-19T05:07:28;2.97;;;2.20;;
17520;SDS011;8878;-33.370;-70.552;2022-08-19T05:09:59;2.47;;;1.23;;
17520;SDS011;8878;-33.370;-70.552;2022-08-19T05:12:29;3.37;;;1.50;;
17520;SDS011;8878;-33.370;-70.552;2022-08-19T05:14:58;3.53;;;2.43;;
17520;SDS011;8878;-33.370;-70.552;2022-08-19T05:17:30;1.77;;;1.43;;
17520;SDS011;8878;-33.370;-70.552;2022-08-19T05:19:59;11.27;;;2.63;;
17520;SDS011;8878;-33.370;-70.552;2022-08-19T05:22:45;5.07;;;2.63;;
17520;SDS011;8878;-33.370;-70.552;2022-08-19T05:25:19;8.20;;;2.07;;
17520;SDS011;8878;-33.370;-70.552;2022-08-19T05:27:52;2.77;;;1.47;;
17520;SDS011;8878;-33.370;-70.552;2022-08-19T05:30:21;5.17;;;2.67;;
17520;SDS011;8878;-33.370;-70.552;2022-08-19T05:32:50;5.03;;;2.67;;
17520;SDS011;8878;-33.370;-70.552;2022-08-19T05:35:21;5.47;;;2.60;;
17520;SDS011;8878;-33.370;-70.552;2022-08-19T05:37:50;2.03;;;1.40;;
17520;SDS011;8878;-33.370;-70.552;2022-08-19T05:40:22;11.10;;;3.13;;
17520;SDS011;8878;-33.370;-70.552;2022-08-19T05:42:51;4.73;;;2.43;;
17520;SDS011;8878;-33.370;-70.552;2022-08-19T05:45:21;3.87;;;3.00;;
17520;SDS011;8878;-33.370;-70.552;2022-08-19T05:47:50;3.57;;;2.60;;
17520;SDS011;8878;-33.370;-70.552;2022-08-19T05:50:19;4.30;;;2.90;;
17520;SDS011;8878;-33.370;-70.552;2022-08-19T05:52:49;5.57;;;1.27;;
17520;SDS011;8878;-33.370;-70.552;2022-08-19T05:55:18;1.80;;;1.37;;
17520;SDS011;8878;-33.370;-70.552;2022-08-19T05:57:50;1.57;;;1.03;;
17520;SDS011;8878;-33.370;-70.552;2022-08-19T06:00:19;1.30;;;0.77;;
17520;SDS011;8878;-33.370;-70.552;2022-08-19T06:02:49;1.60;;;1.27;;
17520;SDS011;8878;-33.370;-70.552;2022-08-19T06:05:20;3.43;;;1.53;;
17520;SDS011;8878;-33.370;-70.552;2022-08-19T06:07:49;2.50;;;2.13;;
17520;SDS011;8878;-33.370;-70.552;2022-08-19T06:10:20;2.43;;;1.13;;
17520;SDS011;8878;-33.370;-70.552;2022-08-19T06:12:51;1.37;;;1.27;;
17520;SDS011;8878;-33.370;-70.552;2022-08-19T06:15:22;0.70;;;0.47;;
17520;SDS011;8878;-33.370;-70.552;2022-08-19T06:17:53;1.50;;;0.97;;
17520;SDS011;8878;-33.370;-70.552;2022-08-19T06:20:23;1.27;;;1.23;;
17520;SDS011;8878;-33.370;-70.552;2022-08-19T06:22:52;0.33;;;0.30;;
17520;SDS011;8878;-33.370;-70.552;2022-08-19T06:25:21;1.80;;;1.67;;
17520;SDS011;8878;-33.370;-70.552;2022-08-19T06:27:52;1.73;;;1.30;;
17520;SDS011;8878;-33.370;-70.552;2022-08-19T06:30:22;1.43;;;1.30;;
17520;SDS011;8878;-33.370;-70.552;2022-08-19T06:32:51;1.20;;;0.93;;
17520;SDS011;8878;-33.370;-70.552;2022-08-19T06:35:21;1.53;;;0.53;;
17520;SDS011;8878;-33.370;-70.552;2022-08-19T06:37:51;0.57;;;0.57;;
17520;SDS011;8878;-33.370;-70.552;2022-08-19T06:40:20;1.67;;;0.77;;
17520;SDS011;8878;-33.370;-70.552;2022-08-19T06:42:50;0.57;;;0.57;;
17520;SDS011;8878;-33.370;-70.552;2022-08-19T06:45:21;1.87;;;0.30;;
17520;SDS011;8878;-33.370;-70.552;2022-08-19T06:47:52;0.60;;;0.47;;
17520;SDS011;8878;-33.370;-70.552;2022-08-19T06:50:22;0.87;;;0.87;;
17520;SDS011;8878;-33.370;-70.552;2022-08-19T06:52:52;0.33;;;0.33;;
17520;SDS011;8878;-33.370;-70.552;2022-08-19T06:55:21;1.33;;;0.67;;
17520;SDS011;8878;-33.370;-70.552;2022-08-19T06:57:52;2.67;;;1.40;;
17520;SDS011;8878;-33.370;-70.552;2022-08-19T07:00:22;0.87;;;0.50;;
17520;SDS011;8878;-33.370;-70.552;2022-08-19T07:02:52;2.20;;;1.43;;
17520;SDS011;8878;-33.370;-70.552;2022-08-19T07:05:21;1.63;;;1.27;;
17520;SDS011;8878;-33.370;-70.552;2022-08-19T07:07:50;0.57;;;0.43;;
17520;SDS011;8878;-33.370;-70.552;2022-08-19T07:10:20;0.63;;;0.63;;
17520;SDS011;8878;-33.370;-70.552;2022-08-19T07:12:49;3.83;;;1.07;;
17520;SDS011;8878;-33.370;-70.552;2022-08-19T07:15:20;0.50;;;0.43;;
17520;SDS011;8878;-33.370;-70.552;2022-08-19T07:17:50;0.70;;;0.70;;
17520;SDS011;8878;-33.370;-70.552;2022-08-19T07:20:19;2.30;;;0.83;;
17520;SDS011;8878;-33.370;-70.552;2022-08-19T07:22:50;1.37;;;1.27;;
17520;SDS011;8878;-33.370;-70.552;2022-08-19T07:25:20;0.47;;;0.47;;
17520;SDS011;8878;-33.370;-70.552;2022-08-19T07:27:49;0.40;;;0.40;;
17520;SDS011;8878;-33.370;-70.552;2022-08-19T07:30:20;0.10;;;0.10;;
17520;SDS011;8878;-33.370;-70.552;2022-08-19T07:32:50;1.70;;;1.40;;
17520;SDS011;8878;-33.370;-70.552;2022-08-19T07:35:21;1.90;;;0.73;;
17520;SDS011;8878;-33.370;-70.552;2022-08-19T07:37:50;1.20;;;0.73;;
17520;SDS011;8878;-33.370;-70.552;2022-08-19T07:40:20;0.30;;;0.30;;
17520;SDS011;8878;-33.370;-70.552;2022-08-19T07:42:51;0.30;;;0.30;;
17520;SDS011;8878;-33.370;-70.552;2022-08-19T07:45:22;0.57;;;0.57;;
17520;SDS011;8878;-33.370;-70.552;2022-08-19T07:47:52;0.83;;;0.77;;
17520;SDS011;8878;-33.370;-70.552;2022-08-19T07:50:21;0.10;;;0.10;;
17520;SDS011;8878;-33.370;-70.552;2022-08-19T07:52:51;0.73;;;0.47;;
17520;SDS011;8878;-33.370;-70.552;2022-08-19T07:55:21;0.23;;;0.23;;
17520;SDS011;8878;-33.370;-70.552;2022-08-19T07:57:53;0.60;;;0.60;;
17520;SDS011;8878;-33.370;-70.552;2022-08-19T08:00:24;1.53;;;0.20;;
17520;SDS011;8878;-33.370;-70.552;2022-08-19T08:02:53;1.60;;;0.50;;
17520;SDS011;8878;-33.370;-70.552;2022-08-19T08:05:24;0.53;;;0.30;;
17520;SDS011;8878;-33.370;-70.552;2022-08-19T08:08:24;0.33;;;0.20;;
17520;SDS011;8878;-33.370;-70.552;2022-08-19T08:11:12;2.63;;;1.00;;
17520;SDS011;8878;-33.370;-70.552;2022-08-19T08:13:42;1.40;;;1.20;;
17520;SDS011;8878;-33.370;-70.552;2022-08-19T08:16:13;1.20;;;0.77;;
17520;SDS011;8878;-33.370;-70.552;2022-08-19T08:18:42;0.73;;;0.73;;
17520;SDS011;8878;-33.370;-70.552;2022-08-19T08:21:12;3.20;;;1.43;;
17520;SDS011;8878;-33.370;-70.552;2022-08-19T08:23:42;4.13;;;2.07;;
17520;SDS011;8878;-33.370;-70.552;2022-08-19T08:26:11;1.73;;;1.60;;
17520;SDS011;8878;-33.370;-70.552;2022-08-19T08:28:41;4.23;;;1.57;;
17520;SDS011;8878;-33.370;-70.552;2022-08-19T08:31:14;4.40;;;2.03;;
17520;SDS011;8878;-33.370;-70.552;2022-08-19T08:33:44;5.83;;;1.03;;
17520;SDS011;8878;-33.370;-70.552;2022-08-19T08:36:14;6.10;;;3.00;;
17520;SDS011;8878;-33.370;-70.552;2022-08-19T08:38:45;1.70;;;1.03;;
17520;SDS011;8878;-33.370;-70.552;2022-08-19T08:41:18;5.20;;;3.50;;
17520;SDS011;8878;-33.370;-70.552;2022-08-19T08:43:55;12.30;;;1.87;;
17520;SDS011;8878;-33.370;-70.552;2022-08-19T08:46:28;3.40;;;1.17;;
17520;SDS011;8878;-33.370;-70.552;2022-08-19T08:49:11;2.27;;;1.53;;
17520;SDS011;8878;-33.370;-70.552;2022-08-19T08:51:57;1.47;;;1.37;;
17520;SDS011;8878;-33.370;-70.552;2022-08-19T08:54:33;2.10;;;1.53;;
17520;SDS011;8878;-33.370;-70.552;2022-08-19T08:57:07;1.37;;;1.07;;
17520;SDS011;8878;-33.370;-70.552;2022-08-19T08:59:43;1.20;;;0.40;;
17520;SDS011;8878;-33.370;-70.552;2022-08-19T09:02:18;0.80;;;0.80;;
17520;SDS011;8878;-33.370;-70.552;2022-08-19T09:04:48;1.27;;;1.20;;
17520;SDS011;8878;-33.370;-70.552;2022-08-19T09:07:21;3.10;;;2.00;;
17520;SDS011;8878;-33.370;-70.552;2022-08-19T09:10:02;5.17;;;1.97;;
17520;SDS011;8878;-33.370;-70.552;2022-08-19T09:12:40;2.20;;;1.23;;
17520;SDS011;8878;-33.370;-70.552;2022-08-19T09:15:15;3.10;;;0.83;;
17520;SDS011;8878;-33.370;-70.552;2022-08-19T09:17:52;3.53;;;2.40;;
17520;SDS011;8878;-33.370;-70.552;2022-08-19T09:20:23;4.70;;;2.87;;
17520;SDS011;8878;-33.370;-70.552;2022-08-19T09:22:52;5.90;;;1.93;;
17520;SDS011;8878;-33.370;-70.552;2022-08-19T09:25:22;3.17;;;2.87;;
17520;SDS011;8878;-33.370;-70.552;2022-08-19T09:27:52;3.33;;;3.03;;
17520;SDS011;8878;-33.370;-70.552;2022-08-19T09:30:23;5.17;;;2.17;;
17520;SDS011;8878;-33.370;-70.552;2022-08-19T09:32:57;4.17;;;1.90;;
17520;SDS011;8878;-33.370;-70.552;2022-08-19T09:35:29;1.87;;;1.77;;
17520;SDS011;8878;-33.370;-70.552;2022-08-19T09:37:58;2.03;;;1.93;;
17520;SDS011;8878;-33.370;-70.552;2022-08-19T09:40:28;1.13;;;1.03;;
17520;SDS011;8878;-33.370;-70.552;2022-08-19T09:42:58;3.57;;;0.90;;
17520;SDS011;8878;-33.370;-70.552;2022-08-19T09:45:28;7.10;;;1.53;;
17520;SDS011;8878;-33.370;-70.552;2022-08-19T09:47:59;0.60;;;0.23;;
17520;SDS011;8878;-33.370;-70.552;2022-08-19T09:50:29;0.17;;;0.17;;
17520;SDS011;8878;-33.370;-70.552;2022-08-19T09:52:59;1.03;;;0.93;;
17520;SDS011;8878;-33.370;-70.552;2022-08-19T09:55:29;0.03;;;0.03;;
17520;SDS011;8878;-33.370;-70.552;2022-08-19T09:57:59;0.20;;;0.20;;
17520;SDS011;8878;-33.370;-70.552;2022-08-19T10:00:29;0.20;;;0.20;;
17520;SDS011;8878;-33.370;-70.552;2022-08-19T10:03:00;0.00;;;0.00;;
17520;SDS011;8878;-33.370;-70.552;2022-08-19T10:05:30;0.10;;;0.10;;
17520;SDS011;8878;-33.370;-70.552;2022-08-19T10:08:18;0.10;;;0.07;;
17520;SDS011;8878;-33.370;-70.552;2022-08-19T10:10:49;0.27;;;0.20;;
17520;SDS011;8878;-33.370;-70.552;2022-08-19T10:13:19;0.00;;;0.00;;
17520;SDS011;8878;-33.370;-70.552;2022-08-19T10:15:50;1.20;;;0.73;;
17520;SDS011;8878;-33.370;-70.552;2022-08-19T10:18:24;0.33;;;0.33;;
17520;SDS011;8878;-33.370;-70.552;2022-08-19T10:21:01;0.10;;;0.10;;
17520;SDS011;8878;-33.370;-70.552;2022-08-19T10:23:34;0.00;;;0.00;;
17520;SDS011;8878;-33.370;-70.552;2022-08-19T10:26:04;0.00;;;0.00;;
17520;SDS011;8878;-33.370;-70.552;2022-08-19T10:28:34;0.00;;;0.00;;
17520;SDS011;8878;-33.370;-70.552;2022-08-19T10:31:05;0.10;;;0.10;;
17520;SDS011;8878;-33.370;-70.552;2022-08-19T10:33:37;0.10;;;0.10;;
17520;SDS011;8878;-33.370;-70.552;2022-08-19T10:36:07;0.00;;;0.00;;
17520;SDS011;8878;-33.370;-70.552;2022-08-19T10:38:43;0.17;;;0.13;;
17520;SDS011;8878;-33.370;-70.552;2022-08-19T10:41:15;0.00;;;0.00;;
17520;SDS011;8878;-33.370;-70.552;2022-08-19T10:43:49;0.00;;;0.00;;
17520;SDS011;8878;-33.370;-70.552;2022-08-19T10:46:20;0.10;;;0.10;;
17520;SDS011;8878;-33.370;-70.552;2022-08-19T10:48:52;0.20;;;0.13;;
17520;SDS011;8878;-33.370;-70.552;2022-08-19T10:51:22;0.00;;;0.00;;
17520;SDS011;8878;-33.370;-70.552;2022-08-19T10:54:08;0.20;;;0.20;;
17520;SDS011;8878;-33.370;-70.552;2022-08-19T10:56:38;0.00;;;0.00;;
17520;SDS011;8878;-33.370;-70.552;2022-08-19T10:59:18;0.00;;;0.00;;
17520;SDS011;8878;-33.370;-70.552;2022-08-19T11:01:58;0.10;;;0.10;;
17520;SDS011;8878;-33.370;-70.552;2022-08-19T11:04:31;0.10;;;0.10;;
17520;SDS011;8878;-33.370;-70.552;2022-08-19T11:07:00;0.00;;;0.00;;
17520;SDS011;8878;-33.370;-70.552;2022-08-19T11:09:31;0.20;;;0.20;;
17520;SDS011;8878;-33.370;-70.552;2022-08-19T11:12:05;0.13;;;0.10;;
17520;SDS011;8878;-33.370;-70.552;2022-08-19T11:14:35;0.13;;;0.13;;
17520;SDS011;8878;-33.370;-70.552;2022-08-19T11:17:05;0.40;;;0.20;;
17520;SDS011;8878;-33.370;-70.552;2022-08-19T11:19:36;2.10;;;1.60;;
17520;SDS011;8878;-33.370;-70.552;2022-08-19T11:22:07;6.77;;;3.33;;
17520;SDS011;8878;-33.370;-70.552;2022-08-19T11:24:38;0.73;;;0.73;;
17520;SDS011;8878;-33.370;-70.552;2022-08-19T11:27:08;1.70;;;1.50;;
17520;SDS011;8878;-33.370;-70.552;2022-08-19T11:29:39;0.30;;;0.30;;
17520;SDS011;8878;-33.370;-70.552;2022-08-19T11:32:09;0.50;;;0.50;;
17520;SDS011;8878;-33.370;-70.552;2022-08-19T11:34:40;0.33;;;0.33;;
17520;SDS011;8878;-33.370;-70.552;2022-08-19T11:37:10;0.10;;;0.10;;
17520;SDS011;8878;-33.370;-70.552;2022-08-19T11:39:39;0.20;;;0.20;;
17520;SDS011;8878;-33.370;-70.552;2022-08-19T11:42:09;0.00;;;0.00;;
17520;SDS011;8878;-33.370;-70.552;2022-08-19T11:44:51;0.10;;;0.10;;
17520;SDS011;8878;-33.370;-70.552;2022-08-19T11:47:20;1.37;;;1.23;;
17520;SDS011;8878;-33.370;-70.552;2022-08-19T11:49:53;0.93;;;0.93;;
17520;SDS011;8878;-33.370;-70.552;2022-08-19T11:52:22;2.97;;;1.77;;
17520;SDS011;8878;-33.370;-70.552;2022-08-19T11:54:51;0.90;;;0.77;;
17520;SDS011;8878;-33.370;-70.552;2022-08-19T11:57:21;1.37;;;1.37;;
17520;SDS011;8878;-33.370;-70.552;2022-08-19T11:59:50;1.60;;;1.47;;
17520;SDS011;8878;-33.370;-70.552;2022-08-19T12:02:20;1.30;;;1.20;;
17520;SDS011;8878;-33.370;-70.552;2022-08-19T12:04:49;0.50;;;0.50;;
17520;SDS011;8878;-33.370;-70.552;2022-08-19T12:07:20;0.10;;;0.10;;
17520;SDS011;8878;-33.370;-70.552;2022-08-19T12:09:50;0.53;;;0.53;;
17520;SDS011;8878;-33.370;-70.552;2022-08-19T12:12:19;0.10;;;0.10;;
17520;SDS011;8878;-33.370;-70.552;2022-08-19T12:14:50;0.20;;;0.20;;
17520;SDS011;8878;-33.370;-70.552;2022-08-19T12:17:24;0.27;;;0.27;;
17520;SDS011;8878;-33.370;-70.552;2022-08-19T12:19:56;0.30;;;0.30;;
17520;SDS011;8878;-33.370;-70.552;2022-08-19T12:22:25;1.03;;;0.50;;
17520;SDS011;8878;-33.370;-70.552;2022-08-19T12:24:54;0.20;;;0.20;;
17520;SDS011;8878;-33.370;-70.552;2022-08-19T12:27:24;0.10;;;0.10;;
17520;SDS011;8878;-33.370;-70.552;2022-08-19T12:29:53;0.53;;;0.37;;
17520;SDS011;8878;-33.370;-70.552;2022-08-19T12:32:22;0.30;;;0.30;;
17520;SDS011;8878;-33.370;-70.552;2022-08-19T12:34:52;2.23;;;0.60;;
17520;SDS011;8878;-33.370;-70.552;2022-08-19T12:37:23;0.53;;;0.53;;
17520;SDS011;8878;-33.370;-70.552;2022-08-19T12:39:55;2.83;;;1.10;;
17520;SDS011;8878;-33.370;-70.552;2022-08-19T12:42:25;2.30;;;0.73;;
17520;SDS011;8878;-33.370;-70.552;2022-08-19T12:44:55;0.47;;;0.47;;
17520;SDS011;8878;-33.370;-70.552;2022-08-19T12:47:25;0.83;;;0.57;;
17520;SDS011;8878;-33.370;-70.552;2022-08-19T12:49:54;1.10;;;0.67;;
17520;SDS011;8878;-33.370;-70.552;2022-08-19T12:52:25;0.90;;;0.70;;
17520;SDS011;8878;-33.370;-70.552;2022-08-19T12:54:55;3.43;;;1.20;;
17520;SDS011;8878;-33.370;-70.552;2022-08-19T12:57:25;4.43;;;1.27;;
17520;SDS011;8878;-33.370;-70.552;2022-08-19T12:59:59;3.23;;;2.60;;
17520;SDS011;8878;-33.370;-70.552;2022-08-19T13:02:33;1.77;;;1.10;;
17520;SDS011;8878;-33.370;-70.552;2022-08-19T13:05:03;1.87;;;1.77;;
17520;SDS011;8878;-33.370;-70.552;2022-08-19T13:07:35;2.27;;;0.80;;
17520;SDS011;8878;-33.370;-70.552;2022-08-19T13:10:06;2.07;;;1.13;;
17520;SDS011;8878;-33.370;-70.552;2022-08-19T13:12:37;0.77;;;0.73;;
17520;SDS011;8878;-33.370;-70.552;2022-08-19T13:15:07;3.03;;;1.43;;
17520;SDS011;8878;-33.370;-70.552;2022-08-19T13:17:37;2.93;;;2.03;;
17520;SDS011;8878;-33.370;-70.552;2022-08-19T13:20:08;22.37;;;1.87;;
17520;SDS011;8878;-33.370;-70.552;2022-08-19T13:22:42;2.23;;;0.93;;
17520;SDS011;8878;-33.370;-70.552;2022-08-19T13:25:11;2.63;;;0.83;;
17520;SDS011;8878;-33.370;-70.552;2022-08-19T13:27:42;10.30;;;1.00;;
17520;SDS011;8878;-33.370;-70.552;2022-08-19T13:30:12;0.50;;;0.50;;
17520;SDS011;8878;-33.370;-70.552;2022-08-19T13:32:59;2.07;;;0.77;;
17520;SDS011;8878;-33.370;-70.552;2022-08-19T13:35:45;0.80;;;0.23;;
17520;SDS011;8878;-33.370;-70.552;2022-08-19T13:38:18;0.47;;;0.47;;
17520;SDS011;8878;-33.370;-70.552;2022-08-19T13:40:48;17.23;;;0.43;;
17520;SDS011;8878;-33.370;-70.552;2022-08-19T13:43:20;0.10;;;0.10;;
17520;SDS011;8878;-33.370;-70.552;2022-08-19T13:45:51;0.10;;;0.10;;
17520;SDS011;8878;-33.370;-70.552;2022-08-19T13:48:21;0.20;;;0.20;;
17520;SDS011;8878;-33.370;-70.552;2022-08-19T13:50:52;0.10;;;0.10;;
17520;SDS011;8878;-33.370;-70.552;2022-08-19T13:53:23;0.10;;;0.10;;
17520;SDS011;8878;-33.370;-70.552;2022-08-19T13:55:53;0.37;;;0.33;;
17520;SDS011;8878;-33.370;-70.552;2022-08-19T13:58:22;0.20;;;0.20;;
17520;SDS011;8878;-33.370;-70.552;2022-08-19T14:00:51;2.20;;;0.60;;
17520;SDS011;8878;-33.370;-70.552;2022-08-19T14:03:21;4.00;;;0.80;;
17520;SDS011;8878;-33.370;-70.552;2022-08-19T14:05:50;0.30;;;0.30;;
17520;SDS011;8878;-33.370;-70.552;2022-08-19T14:08:19;0.10;;;0.10;;
17520;SDS011;8878;-33.370;-70.552;2022-08-19T14:10:50;0.17;;;0.17;;
17520;SDS011;8878;-33.370;-70.552;2022-08-19T14:13:20;0.52;;;0.30;;
17520;SDS011;8878;-33.370;-70.552;2022-08-19T14:15:51;0.70;;;0.20;;
17520;SDS011;8878;-33.370;-70.552;2022-08-19T14:18:20;0.20;;;0.20;;
17520;SDS011;8878;-33.370;-70.552;2022-08-19T14:20:50;0.38;;;0.15;;
17520;SDS011;8878;-33.370;-70.552;2022-08-19T14:23:21;0.43;;;0.43;;
17520;SDS011;8878;-33.370;-70.552;2022-08-19T14:25:52;0.57;;;0.50;;
17520;SDS011;8878;-33.370;-70.552;2022-08-19T14:28:22;0.08;;;0.08;;
17520;SDS011;8878;-33.370;-70.552;2022-08-19T14:30:51;0.57;;;0.43;;
17520;SDS011;8878;-33.370;-70.552;2022-08-19T14:33:20;0.03;;;0.03;;
17520;SDS011;8878;-33.370;-70.552;2022-08-19T14:35:50;0.65;;;0.50;;
17520;SDS011;8878;-33.370;-70.552;2022-08-19T14:38:19;0.25;;;0.03;;
17520;SDS011;8878;-33.370;-70.552;2022-08-19T14:40:49;0.50;;;0.30;;
17520;SDS011;8878;-33.370;-70.552;2022-08-19T14:43:21;0.20;;;0.20;;
17520;SDS011;8878;-33.370;-70.552;2022-08-19T14:45:50;5.93;;;0.28;;